Time;durP1;ratioP1;P1;durP2;ratioP2;P2;SDS_P1;SDS_P2;PMS_P1;PMS_P2;Temp;Humidity;BMP_temperature;BMP_pressure;BME280_temperature;BME280_humidity;BME280_pressure;Samples;Min_cycle;Max_cycle;Signal;HPM_P1;HPM_P2
2021/09/28 00:02:18;;;;;;;9.20;2.60;;;;;;;;;;5040680;28;20052;-67
2021/09/28 00:04:44;;;;;;;8.90;3.60;;;;;;;;;;5039070;28;20382;-67
2021/09/28 00:07:10;;;;;;;9.23;2.72;;;;;;;;;;5043502;28;20037;-67
2021/09/28 00:09:36;;;;;;;9.52;3.03;;;;;;;;;;5037470;28;20127;-67
2021/09/28 00:12:03;;;;;;;9.18;3.60;;;;;;;;;;5041212;28;20397;-67
2021/09/28 00:14:29;;;;;;;6.47;2.55;;;;;;;;;;5049513;28;20037;-67
2021/09/28 00:16:55;;;;;;;5.72;2.65;;;;;;;;;;5034917;28;20045;-67
2021/09/28 00:19:21;;;;;;;8.05;2.70;;;;;;;;;;5042604;28;20044;-67
2021/09/28 00:21:47;;;;;;;10.98;3.38;;;;;;;;;;5038724;28;20044;-67
2021/09/28 00:24:14;;;;;;;8.75;3.05;;;;;;;;;;5043530;28;20120;-67
2021/09/28 00:26:40;;;;;;;12.02;4.40;;;;;;;;;;5035687;28;20056;-67
2021/09/28 00:29:06;;;;;;;8.32;4.55;;;;;;;;;;5040612;28;20102;-67
2021/09/28 00:31:32;;;;;;;8.18;3.08;;;;;;;;;;5029336;28;20494;-67
2021/09/28 00:33:58;;;;;;;15.07;4.25;;;;;;;;;;5043589;28;20048;-67
2021/09/28 00:36:24;;;;;;;9.55;4.40;;;;;;;;;;5037279;28;20041;-67
2021/09/28 00:38:51;;;;;;;10.27;4.32;;;;;;;;;;5043998;28;20409;-67
2021/09/28 00:41:17;;;;;;;11.15;4.70;;;;;;;;;;5040287;28;20441;-67
2021/09/28 00:43:47;;;;;;;9.15;3.92;;;;;;;;;;5042229;28;20152;-67
2021/09/28 00:46:13;;;;;;;10.15;3.90;;;;;;;;;;5036295;28;20045;-67
2021/09/28 00:48:40;;;;;;;8.93;4.43;;;;;;;;;;5045775;28;20041;-67
2021/09/28 00:51:06;;;;;;;7.63;3.78;;;;;;;;;;5037351;28;20036;-67
2021/09/28 00:53:32;;;;;;;13.80;4.40;;;;;;;;;;5044328;28;20120;-67
2021/09/28 00:55:59;;;;;;;10.55;4.15;;;;;;;;;;5041443;28;20494;-67
2021/09/28 00:58:25;;;;;;;9.13;4.20;;;;;;;;;;5039328;28;20545;-67
2021/09/28 01:00:52;;;;;;;12.38;4.47;;;;;;;;;;5040377;28;20505;-67
2021/09/28 01:03:18;;;;;;;15.75;5.82;;;;;;;;;;5031588;28;20118;-67
2021/09/28 01:05:44;;;;;;;9.23;4.22;;;;;;;;;;5046705;28;20037;-67
2021/09/28 01:08:10;;;;;;;12.85;5.68;;;;;;;;;;5038203;28;20103;-67
2021/09/28 01:10:36;;;;;;;9.82;4.43;;;;;;;;;;5043683;28;20041;-67
2021/09/28 01:13:03;;;;;;;10.95;5.47;;;;;;;;;;5033668;28;20405;-67
2021/09/28 01:15:29;;;;;;;11.85;5.13;;;;;;;;;;5040204;28;20102;-67
2021/09/28 01:17:55;;;;;;;11.13;4.90;;;;;;;;;;5038158;28;20033;-67
2021/09/28 01:20:21;;;;;;;11.82;4.38;;;;;;;;;;5045764;28;20033;-67
2021/09/28 01:22:47;;;;;;;9.35;5.28;;;;;;;;;;5039662;28;20040;-67
2021/09/28 01:25:13;;;;;;;11.20;5.38;;;;;;;;;;5051361;28;20041;-67
2021/09/28 01:27:39;;;;;;;8.73;5.00;;;;;;;;;;5037924;28;20143;-67
2021/09/28 01:30:07;;;;;;;8.65;5.05;;;;;;;;;;5045085;28;20128;-67
2021/09/28 01:32:33;;;;;;;10.10;4.63;;;;;;;;;;5040678;28;20037;-67
2021/09/28 01:35:00;;;;;;;7.68;5.50;;;;;;;;;;5042217;28;20053;-67
2021/09/28 01:37:26;;;;;;;11.25;4.78;;;;;;;;;;5044991;28;20029;-67
2021/09/28 01:39:52;;;;;;;11.90;5.47;;;;;;;;;;5041543;28;20037;-67
2021/09/28 01:42:19;;;;;;;15.65;6.00;;;;;;;;;;5047070;28;20400;-67
2021/09/28 01:44:45;;;;;;;12.70;5.90;;;;;;;;;;5040444;28;20106;-67
2021/09/28 01:47:11;;;;;;;14.48;5.47;;;;;;;;;;5045338;28;20037;-68
2021/09/28 01:49:37;;;;;;;12.57;7.15;;;;;;;;;;5045518;28;20462;-68
2021/09/28 01:52:03;;;;;;;19.05;6.50;;;;;;;;;;5042512;28;20124;-68
2021/09/28 01:54:29;;;;;;;10.60;5.80;;;;;;;;;;5040845;28;20056;-68
2021/09/28 01:56:55;;;;;;;10.90;5.65;;;;;;;;;;5044633;28;20080;-68
2021/09/28 01:59:21;;;;;;;16.70;7.97;;;;;;;;;;5042313;28;20154;-67
2021/09/28 02:01:47;;;;;;;11.00;6.45;;;;;;;;;;5036879;28;20033;-68
2021/09/28 02:04:13;;;;;;;20.92;9.32;;;;;;;;;;5035986;28;20049;-68
2021/09/28 02:06:40;;;;;;;12.90;6.80;;;;;;;;;;5047618;28;20499;-68
2021/09/28 02:09:07;;;;;;;17.00;7.82;;;;;;;;;;5038187;28;20041;-68
2021/09/28 02:11:33;;;;;;;11.85;8.00;;;;;;;;;;5041317;28;20056;-68
2021/09/28 02:14:00;;;;;;;14.85;7.15;;;;;;;;;;5043610;28;20099;-68
2021/09/28 02:16:26;;;;;;;13.23;7.15;;;;;;;;;;5042179;28;20386;-68
2021/09/28 02:18:52;;;;;;;11.75;7.50;;;;;;;;;;5047739;28;20428;-68
2021/09/28 02:21:18;;;;;;;12.23;8.52;;;;;;;;;;5040012;28;20041;-68
2021/09/28 02:23:44;;;;;;;14.05;7.97;;;;;;;;;;5047465;28;20037;-68
2021/09/28 02:26:10;;;;;;;16.50;7.50;;;;;;;;;;5039519;28;20044;-68
2021/09/28 02:28:36;;;;;;;21.10;7.18;;;;;;;;;;5045580;28;20037;-68
2021/09/28 02:31:02;;;;;;;17.48;7.32;;;;;;;;;;5041472;28;20037;-68
2021/09/28 02:33:28;;;;;;;12.70;7.63;;;;;;;;;;5042531;28;20080;-67
2021/09/28 02:35:54;;;;;;;16.40;7.07;;;;;;;;;;5035394;28;20049;-68
2021/09/28 02:38:21;;;;;;;20.08;9.02;;;;;;;;;;5043164;28;20076;-68
2021/09/28 02:40:47;;;;;;;16.77;8.00;;;;;;;;;;5041311;28;20049;-67
2021/09/28 02:43:13;;;;;;;14.68;7.65;;;;;;;;;;5041602;28;20228;-67
2021/09/28 02:45:40;;;;;;;23.50;10.10;;;;;;;;;;5036155;28;20049;-67
2021/09/28 02:48:06;;;;;;;15.38;7.63;;;;;;;;;;5043911;28;20041;-68
2021/09/28 02:50:34;;;;;;;18.30;9.45;;;;;;;;;;5045798;28;20037;-67
2021/09/28 02:53:01;;;;;;;13.90;9.15;;;;;;;;;;5046347;28;20049;-67
2021/09/28 02:55:28;;;;;;;16.02;9.40;;;;;;;;;;5042014;28;20134;-67
2021/09/28 02:57:54;;;;;;;12.50;7.80;;;;;;;;;;5037659;28;20489;-67
2021/09/28 03:00:20;;;;;;;19.05;9.90;;;;;;;;;;5046310;28;20513;-67
2021/09/28 03:02:46;;;;;;;26.25;10.30;;;;;;;;;;5034436;28;20104;-67
2021/09/28 03:05:12;;;;;;;18.05;8.80;;;;;;;;;;5044309;28;20050;-68
2021/09/28 03:07:38;;;;;;;15.82;8.77;;;;;;;;;;5041090;28;20114;-68
2021/09/28 03:10:04;;;;;;;20.20;10.25;;;;;;;;;;5043300;28;20052;-68
2021/09/28 03:12:30;;;;;;;16.98;10.75;;;;;;;;;;5038201;28;20048;-68
2021/09/28 03:14:56;;;;;;;15.98;8.52;;;;;;;;;;5044410;28;20116;-67
2021/09/28 03:17:25;;;;;;;18.17;8.68;;;;;;;;;;5041560;28;20041;-67
2021/09/28 03:19:51;;;;;;;15.45;8.25;;;;;;;;;;5041852;28;20057;-67
2021/09/28 03:22:17;;;;;;;21.88;10.90;;;;;;;;;;5038912;28;20037;-67
2021/09/28 03:24:43;;;;;;;17.48;9.88;;;;;;;;;;5043520;28;20041;-67
2021/09/28 03:27:09;;;;;;;28.80;12.45;;;;;;;;;;5043132;28;20172;-67
2021/09/28 03:29:36;;;;;;;26.25;11.32;;;;;;;;;;5039944;28;20425;-67
2021/09/28 03:32:02;;;;;;;14.60;8.75;;;;;;;;;;5043661;28;20079;-67
2021/09/28 03:34:28;;;;;;;30.60;12.95;;;;;;;;;;5040128;28;20389;-68
2021/09/28 03:36:54;;;;;;;27.83;14.40;;;;;;;;;;5046867;28;20450;-68
2021/09/28 03:39:20;;;;;;;22.50;11.85;;;;;;;;;;5034789;28;20037;-68
2021/09/28 03:41:46;;;;;;;20.52;10.93;;;;;;;;;;5037852;28;20116;-68
2021/09/28 03:44:12;;;;;;;26.25;12.27;;;;;;;;;;5043080;28;20079;-68
2021/09/28 03:46:38;;;;;;;16.75;10.77;;;;;;;;;;5039075;28;20378;-68
2021/09/28 03:49:04;;;;;;;27.17;14.50;;;;;;;;;;5033911;28;20497;-68
2021/09/28 03:51:30;;;;;;;26.08;14.30;;;;;;;;;;5046708;28;20497;-68
2021/09/28 03:53:56;;;;;;;32.15;13.98;;;;;;;;;;5038307;28;20045;-68
2021/09/28 03:56:22;;;;;;;25.70;12.60;;;;;;;;;;5039487;28;20040;-68
2021/09/28 03:58:48;;;;;;;28.05;13.20;;;;;;;;;;5039364;28;20561;-68
2021/09/28 04:01:15;;;;;;;24.33;11.45;;;;;;;;;;5043698;28;20532;-68
2021/09/28 04:03:41;;;;;;;20.73;13.93;;;;;;;;;;5030565;28;20432;-68
2021/09/28 04:06:08;;;;;;;28.17;13.07;;;;;;;;;;5040517;28;20045;-68
2021/09/28 04:08:34;;;;;;;20.33;11.73;;;;;;;;;;5043680;28;20045;-68
2021/09/28 04:11:00;;;;;;;22.63;12.60;;;;;;;;;;5038821;28;20064;-68
2021/09/28 04:13:26;;;;;;;22.38;12.35;;;;;;;;;;5041898;28;20086;-68
2021/09/28 04:15:52;;;;;;;24.00;11.43;;;;;;;;;;5040218;28;20037;-68
2021/09/28 04:18:19;;;;;;;21.95;10.77;;;;;;;;;;5039440;28;20551;-68
2021/09/28 04:20:45;;;;;;;27.25;14.48;;;;;;;;;;5033684;28;20478;-68
2021/09/28 04:23:13;;;;;;;32.22;14.00;;;;;;;;;;5040998;28;20041;-68
2021/09/28 04:25:39;;;;;;;24.02;11.70;;;;;;;;;;5041061;28;20044;-68
2021/09/28 04:28:06;;;;;;;21.05;11.13;;;;;;;;;;5041069;28;20536;-68
2021/09/28 04:30:32;;;;;;;25.85;12.63;;;;;;;;;;5034345;28;20475;-68
2021/09/28 04:32:58;;;;;;;29.38;14.45;;;;;;;;;;5043804;28;20520;-68
2021/09/28 04:35:24;;;;;;;21.80;11.13;;;;;;;;;;5034204;28;20045;-68
2021/09/28 04:37:50;;;;;;;27.17;12.55;;;;;;;;;;5041625;28;20075;-68
2021/09/28 04:40:16;;;;;;;20.98;11.27;;;;;;;;;;5037696;28;20044;-68
2021/09/28 04:42:42;;;;;;;26.63;11.77;;;;;;;;;;5027077;28;20045;-68
2021/09/28 04:45:09;;;;;;;33.22;15.73;;;;;;;;;;5036448;28;20269;-68
2021/09/28 04:47:35;;;;;;;28.92;14.60;;;;;;;;;;5039086;28;20508;-68
2021/09/28 04:50:02;;;;;;;29.92;13.13;;;;;;;;;;5039313;28;20095;-68
2021/09/28 04:52:28;;;;;;;42.70;16.80;;;;;;;;;;5041915;28;20037;-68
2021/09/28 04:54:54;;;;;;;31.02;14.60;;;;;;;;;;5049908;28;20048;-68
2021/09/28 04:57:21;;;;;;;33.35;14.88;;;;;;;;;;5042108;28;20083;-68
2021/09/28 04:59:47;;;;;;;25.20;12.70;;;;;;;;;;5051346;28;20045;-68
2021/09/28 05:02:14;;;;;;;28.77;14.02;;;;;;;;;;5041068;28;20043;-68
2021/09/28 05:04:40;;;;;;;23.52;13.57;;;;;;;;;;5046011;28;20045;-68
2021/09/28 05:07:06;;;;;;;34.40;14.77;;;;;;;;;;5038770;28;20045;-68
2021/09/28 05:09:32;;;;;;;30.92;13.77;;;;;;;;;;5049477;28;20423;-68
2021/09/28 05:11:59;;;;;;;27.75;12.73;;;;;;;;;;5039811;28;20044;-66
2021/09/28 05:14:26;;;;;;;35.25;15.85;;;;;;;;;;5047157;28;20045;-66
2021/09/28 05:16:52;;;;;;;21.90;10.93;;;;;;;;;;5038642;28;20033;-66
2021/09/28 05:19:18;;;;;;;24.23;11.13;;;;;;;;;;5049016;28;20532;-66
2021/09/28 05:21:44;;;;;;;24.65;13.77;;;;;;;;;;5041121;28;25033;-66
2021/09/28 05:24:10;;;;;;;29.50;13.30;;;;;;;;;;5045500;28;20083;-66
2021/09/28 05:26:36;;;;;;;28.92;15.75;;;;;;;;;;5051143;28;20053;-66
2021/09/28 05:29:02;;;;;;;30.33;14.88;;;;;;;;;;5044315;28;20072;-67
2021/09/28 05:31:29;;;;;;;30.10;16.40;;;;;;;;;;5046651;28;20049;-67
2021/09/28 05:33:55;;;;;;;31.35;17.05;;;;;;;;;;5040022;28;20064;-66
2021/09/28 05:36:21;;;;;;;30.80;14.88;;;;;;;;;;5046903;28;20041;-66
2021/09/28 05:38:48;;;;;;;30.88;15.40;;;;;;;;;;5042443;28;20037;-66
2021/09/28 05:41:15;;;;;;;29.60;14.75;;;;;;;;;;5046372;28;20158;-66
2021/09/28 05:43:41;;;;;;;53.20;18.92;;;;;;;;;;5033444;28;20033;-66
2021/09/28 05:46:07;;;;;;;32.15;15.70;;;;;;;;;;5045363;28;20037;-66
2021/09/28 05:48:33;;;;;;;36.47;16.30;;;;;;;;;;5043112;28;20041;-66
2021/09/28 05:50:59;;;;;;;53.67;18.50;;;;;;;;;;5050565;28;20120;-66
2021/09/28 05:53:33;;;;;;;24.13;13.45;;;;;;;;;;5045700;28;20040;-66
2021/09/28 05:55:59;;;;;;;37.97;16.48;;;;;;;;;;5048216;28;20064;-66
2021/09/28 05:58:25;;;;;;;27.48;15.13;;;;;;;;;;5037284;28;20045;-66
2021/09/28 06:00:51;;;;;;;28.50;15.60;;;;;;;;;;5042692;28;20065;-66
2021/09/28 06:03:17;;;;;;;50.28;18.95;;;;;;;;;;5043692;28;20040;-66
2021/09/28 06:05:43;;;;;;;37.85;15.38;;;;;;;;;;5049229;28;20041;-67
2021/09/28 06:08:09;;;;;;;38.22;19.35;;;;;;;;;;5046264;28;20061;-67
2021/09/28 06:10:35;;;;;;;33.95;17.55;;;;;;;;;;5042915;28;20044;-67
2021/09/28 06:13:01;;;;;;;56.88;21.65;;;;;;;;;;5044131;28;20061;-67
2021/09/28 06:15:27;;;;;;;42.95;17.67;;;;;;;;;;5035711;28;20120;-67
2021/09/28 06:17:54;;;;;;;46.38;19.90;;;;;;;;;;5042876;28;20511;-67
2021/09/28 06:20:20;;;;;;;62.28;23.25;;;;;;;;;;5042355;28;20547;-67
2021/09/28 06:22:46;;;;;;;54.28;20.63;;;;;;;;;;5045671;28;20032;-67
2021/09/28 06:25:12;;;;;;;48.28;20.95;;;;;;;;;;5039496;28;20040;-67
2021/09/28 06:27:39;;;;;;;35.88;18.92;;;;;;;;;;5042556;28;20118;-67
2021/09/28 06:30:05;;;;;;;44.35;17.95;;;;;;;;;;5035228;28;20056;-67
2021/09/28 06:32:31;;;;;;;33.38;17.48;;;;;;;;;;5038444;28;20493;-67
2021/09/28 06:34:58;;;;;;;58.20;22.33;;;;;;;;;;5039482;28;20041;-67
2021/09/28 06:37:24;;;;;;;42.83;19.40;;;;;;;;;;5043007;28;20061;-67
2021/09/28 06:39:50;;;;;;;53.80;21.27;;;;;;;;;;5036228;28;20061;-67
2021/09/28 06:42:16;;;;;;;41.45;19.15;;;;;;;;;;5042997;28;20033;-68
2021/09/28 06:44:42;;;;;;;39.03;19.13;;;;;;;;;;5043190;28;20226;-68
2021/09/28 06:47:09;;;;;;;37.83;18.35;;;;;;;;;;5046270;28;20417;-68
2021/09/28 06:49:35;;;;;;;36.30;19.25;;;;;;;;;;5043843;28;20049;-67
2021/09/28 06:52:01;;;;;;;70.72;26.05;;;;;;;;;;5023978;28;20102;-67
2021/09/28 06:54:27;;;;;;;44.42;20.15;;;;;;;;;;5044365;28;20105;-67
2021/09/28 06:56:53;;;;;;;32.78;16.83;;;;;;;;;;5036272;28;20056;-67
2021/09/28 06:59:19;;;;;;;48.00;20.52;;;;;;;;;;5041899;28;20053;-67
2021/09/28 07:01:45;;;;;;;31.13;16.17;;;;;;;;;;5041769;28;20040;-67
2021/09/28 07:04:11;;;;;;;35.15;17.77;;;;;;;;;;5047268;28;20041;-67
2021/09/28 07:06:37;;;;;;;28.67;15.35;;;;;;;;;;5036919;28;20393;-67
2021/09/28 07:09:04;;;;;;;29.25;14.70;;;;;;;;;;5045782;28;20058;-68
2021/09/28 07:11:30;;;;;;;35.00;16.30;;;;;;;;;;5043144;28;20041;-67
2021/09/28 07:13:56;;;;;;;29.73;13.95;;;;;;;;;;5040162;28;20540;-67
2021/09/28 07:16:22;;;;;;;27.90;12.35;;;;;;;;;;5023976;28;20091;-67
2021/09/28 07:18:48;;;;;;;32.33;13.35;;;;;;;;;;5047256;28;20068;-67
2021/09/28 07:21:15;;;;;;;24.60;11.50;;;;;;;;;;5041228;28;20493;-67
2021/09/28 07:23:41;;;;;;;240.63;23.80;;;;;;;;;;5041812;28;20033;-68
2021/09/28 07:26:08;;;;;;;24.50;8.50;;;;;;;;;;5046421;28;20396;-68
2021/09/28 07:28:35;;;;;;;20.80;8.68;;;;;;;;;;5044096;28;20037;-68
2021/09/28 07:31:01;;;;;;;20.17;7.53;;;;;;;;;;5041282;28;20045;-68
2021/09/28 07:33:27;;;;;;;124.00;19.20;;;;;;;;;;5038473;28;20087;-68
2021/09/28 07:35:53;;;;;;;18.65;7.28;;;;;;;;;;5047612;28;20091;-68
2021/09/28 07:38:19;;;;;;;198.40;20.58;;;;;;;;;;5044000;28;20440;-68
2021/09/28 07:40:47;;;;;;;303.02;25.83;;;;;;;;;;5042440;28;20041;-69
2021/09/28 07:43:13;;;;;;;16.88;6.10;;;;;;;;;;5039259;28;20044;-69
2021/09/28 07:45:39;;;;;;;14.75;5.43;;;;;;;;;;5043990;28;20053;-69
2021/09/28 07:48:06;;;;;;;106.78;12.88;;;;;;;;;;5040739;28;20397;-69
2021/09/28 07:50:32;;;;;;;15.27;5.65;;;;;;;;;;5039382;28;20439;-69
2021/09/28 07:52:58;;;;;;;177.20;20.40;;;;;;;;;;5038508;28;20042;-69
2021/09/28 07:55:24;;;;;;;16.58;5.95;;;;;;;;;;5044685;28;20058;-69
2021/09/28 07:57:51;;;;;;;12.35;5.63;;;;;;;;;;5032160;28;20045;-69
2021/09/28 08:00:17;;;;;;;10.07;5.13;;;;;;;;;;5037566;28;20458;-69
2021/09/28 08:02:43;;;;;;;13.35;5.72;;;;;;;;;;5038804;28;20061;-69
2021/09/28 08:05:10;;;;;;;16.30;5.72;;;;;;;;;;5046518;28;20048;-69
2021/09/28 08:07:36;;;;;;;16.17;5.25;;;;;;;;;;5041796;28;20123;-69
2021/09/28 08:10:03;;;;;;;16.63;4.80;;;;;;;;;;5034673;28;20049;-69
2021/09/28 08:12:29;;;;;;;13.07;4.78;;;;;;;;;;5047002;28;20425;-69
2021/09/28 08:14:55;;;;;;;14.85;5.00;;;;;;;;;;5040148;28;20506;-69
2021/09/28 08:17:22;;;;;;;10.80;4.43;;;;;;;;;;5040848;28;20133;-71
2021/09/28 08:19:49;;;;;;;13.15;4.40;;;;;;;;;;5037532;28;20485;-71
2021/09/28 08:22:16;;;;;;;12.57;4.13;;;;;;;;;;5037796;28;20052;-71
2021/09/28 08:24:44;;;;;;;14.05;4.47;;;;;;;;;;5036723;28;20124;-71
2021/09/28 08:30:08;;;;;;;14.15;4.65;;;;;;;;;;5019774;28;20127;-70
2021/09/28 08:32:34;;;;;;;9.98;3.72;;;;;;;;;;5044954;28;20045;-70
2021/09/28 08:35:00;;;;;;;12.55;4.25;;;;;;;;;;5023564;28;20099;-70
2021/09/28 08:37:27;;;;;;;10.18;3.67;;;;;;;;;;5039675;28;20049;-70
2021/09/28 08:39:53;;;;;;;12.40;4.10;;;;;;;;;;5040998;28;20072;-70
2021/09/28 08:42:20;;;;;;;12.88;3.95;;;;;;;;;;5045565;28;20033;-70
2021/09/28 08:44:46;;;;;;;13.07;3.55;;;;;;;;;;5036392;28;20125;-70
2021/09/28 08:47:12;;;;;;;9.70;3.42;;;;;;;;;;5043332;28;20500;-71
2021/09/28 08:49:38;;;;;;;13.55;3.90;;;;;;;;;;5040527;28;20401;-71
2021/09/28 08:52:04;;;;;;;8.93;3.28;;;;;;;;;;5045909;28;20052;-70
2021/09/28 08:54:31;;;;;;;8.35;2.92;;;;;;;;;;5040518;28;20053;-71
2021/09/28 08:56:57;;;;;;;12.57;3.55;;;;;;;;;;5035665;28;20095;-70
2021/09/28 08:59:23;;;;;;;14.25;3.45;;;;;;;;;;5039997;28;20039;-70
2021/09/28 09:01:57;;;;;;;13.02;3.35;;;;;;;;;;5033891;28;20067;-71
2021/09/28 09:04:26;;;;;;;11.55;3.75;;;;;;;;;;5038731;28;20070;-70
2021/09/28 09:06:54;;;;;;;10.40;3.20;;;;;;;;;;5038418;28;20091;-70
2021/09/28 09:09:21;;;;;;;11.02;3.65;;;;;;;;;;5042045;28;20493;-70
2021/09/28 09:11:48;;;;;;;12.20;3.25;;;;;;;;;;5035258;28;20041;-70
2021/09/28 09:14:15;;;;;;;12.02;3.13;;;;;;;;;;5043399;28;20033;-71
2021/09/28 09:16:42;;;;;;;8.80;3.20;;;;;;;;;;5037208;28;20042;-70
2021/09/28 09:19:14;;;;;;;10.10;2.85;;;;;;;;;;5045068;28;20055;-70
2021/09/28 09:21:48;;;;;;;12.93;3.30;;;;;;;;;;5034475;28;20041;-70
2021/09/28 09:24:34;;;;;;;10.30;2.80;;;;;;;;;;5044551;28;20470;-70
2021/09/28 09:27:00;;;;;;;9.50;2.92;;;;;;;;;;5038209;28;20073;-71
2021/09/28 09:29:26;;;;;;;8.00;2.90;;;;;;;;;;5048534;28;20049;-70
2021/09/28 09:31:55;;;;;;;11.18;3.13;;;;;;;;;;5033628;28;20057;-71
2021/09/28 09:34:22;;;;;;;10.45;2.97;;;;;;;;;;5041940;28;20052;-70
2021/09/28 09:36:57;;;;;;;9.27;2.33;;;;;;;;;;5034225;28;20132;-70
2021/09/28 09:39:25;;;;;;;9.52;2.80;;;;;;;;;;5045129;28;20428;-70
2021/09/28 09:42:07;;;;;;;9.23;2.85;;;;;;;;;;5037687;28;20115;-70
2021/09/28 09:44:35;;;;;;;8.52;2.67;;;;;;;;;;5041068;28;20481;-70
2021/09/28 09:47:01;;;;;;;10.75;2.60;;;;;;;;;;5044164;28;20169;-70
2021/09/28 09:49:31;;;;;;;11.10;3.13;;;;;;;;;;5044351;28;20128;-70
2021/09/28 09:52:03;;;;;;;11.77;3.00;;;;;;;;;;5025610;28;20457;-70
2021/09/28 09:54:30;;;;;;;13.40;2.83;;;;;;;;;;5044878;28;20061;-70
2021/09/28 09:56:57;;;;;;;8.65;2.30;;;;;;;;;;5047689;28;20075;-70
2021/09/28 09:59:24;;;;;;;10.05;2.47;;;;;;;;;;5040655;28;20053;-70
2021/09/28 10:01:51;;;;;;;12.77;2.75;;;;;;;;;;5041725;28;20072;-70
2021/09/28 10:04:21;;;;;;;9.38;2.33;;;;;;;;;;5032542;28;20034;-70
2021/09/28 10:06:48;;;;;;;9.80;2.58;;;;;;;;;;5050589;28;20068;-70
2021/09/28 10:09:24;;;;;;;10.98;2.60;;;;;;;;;;5032172;28;20049;-70
2021/09/28 10:11:52;;;;;;;11.23;2.60;;;;;;;;;;5037043;28;22980;-70
2021/09/28 10:14:28;;;;;;;10.85;2.20;;;;;;;;;;5036547;28;20040;-70
2021/09/28 10:16:56;;;;;;;10.30;2.42;;;;;;;;;;5048672;28;20081;-71
2021/09/28 10:19:28;;;;;;;11.73;2.33;;;;;;;;;;5034097;28;20045;-71
2021/09/28 10:21:55;;;;;;;10.63;2.58;;;;;;;;;;5042250;28;20442;-71
2021/09/28 10:24:21;;;;;;;11.38;2.40;;;;;;;;;;5039545;28;20393;-71
2021/09/28 10:27:08;;;;;;;10.60;2.15;;;;;;;;;;5030492;28;20144;-70
2021/09/28 10:29:39;;;;;;;12.20;2.80;;;;;;;;;;5035985;28;20529;-72
2021/09/28 10:32:24;;;;;;;12.88;2.60;;;;;;;;;;5041472;28;20125;-71
2021/09/28 10:37:51;;;;;;;8.40;2.10;;;;;;;;;;5048961;28;20049;-71
2021/09/28 10:40:21;;;;;;;10.18;2.38;;;;;;;;;;5039214;28;20059;-71
2021/09/28 10:42:50;;;;;;;11.98;2.47;;;;;;;;;;5041660;28;20098;-71
2021/09/28 10:45:21;;;;;;;12.43;2.80;;;;;;;;;;5036718;28;20049;-71
2021/09/28 10:47:54;;;;;;;10.48;2.53;;;;;;;;;;5038376;28;20040;-72
2021/09/28 10:50:36;;;;;;;9.93;2.25;;;;;;;;;;5040584;28;20374;-72
2021/09/28 10:53:05;;;;;;;9.55;1.90;;;;;;;;;;5037633;28;20428;-72
2021/09/28 10:55:38;;;;;;;9.57;2.13;;;;;;;;;;5039307;28;20438;-72
2021/09/28 10:58:14;;;;;;;7.72;2.00;;;;;;;;;;5043203;28;20064;-73
2021/09/28 11:00:41;;;;;;;13.68;4.38;;;;;;;;;;5033763;28;20049;-72
2021/09/28 11:03:11;;;;;;;12.98;2.03;;;;;;;;;;5039443;28;20033;-72
2021/09/28 11:05:38;;;;;;;8.18;1.95;;;;;;;;;;5034745;28;20182;-72
2021/09/28 11:08:05;;;;;;;8.65;2.17;;;;;;;;;;5043556;28;20102;-72
2021/09/28 11:10:31;;;;;;;9.60;2.10;;;;;;;;;;5041025;28;20048;-72
2021/09/28 11:12:57;;;;;;;7.50;1.85;;;;;;;;;;5037853;28;20041;-72
2021/09/28 11:15:25;;;;;;;9.68;1.60;;;;;;;;;;5038582;28;20057;-72
2021/09/28 11:17:51;;;;;;;7.38;1.90;;;;;;;;;;5044000;28;20535;-72
2021/09/28 11:20:21;;;;;;;9.93;1.80;;;;;;;;;;5039576;28;20122;-72
2021/09/28 11:22:57;;;;;;;11.75;2.30;;;;;;;;;;5024034;28;20043;-72
2021/09/28 11:25:23;;;;;;;12.32;2.28;;;;;;;;;;5045869;28;20053;-72
2021/09/28 11:28:03;;;;;;;11.75;2.30;;;;;;;;;;5041473;28;20501;-72
2021/09/28 11:30:33;;;;;;;9.15;2.00;;;;;;;;;;5039689;28;20124;-72
2021/09/28 11:33:00;;;;;;;8.40;1.75;;;;;;;;;;5021200;28;20131;-73
2021/09/28 11:35:26;;;;;;;10.32;1.83;;;;;;;;;;5046991;28;20163;-73
2021/09/28 11:38:02;;;;;;;6.78;1.50;;;;;;;;;;5041426;28;20048;-73
2021/09/28 11:40:29;;;;;;;8.23;2.28;;;;;;;;;;5028854;28;20072;-73
2021/09/28 11:42:56;;;;;;;6.32;1.40;;;;;;;;;;5036659;28;20068;-73
2021/09/28 11:45:28;;;;;;;8.43;1.73;;;;;;;;;;5013133;28;20052;-73
2021/09/28 11:47:56;;;;;;;8.90;1.92;;;;;;;;;;5023152;28;20168;-73
2021/09/28 11:50:25;;;;;;;9.27;1.73;;;;;;;;;;5026896;28;20448;-73
2021/09/28 11:52:52;;;;;;;10.23;2.17;;;;;;;;;;5036576;28;20057;-73
2021/09/28 11:55:22;;;;;;;10.80;2.30;;;;;;;;;;5046700;28;20124;-73
2021/09/28 11:57:48;;;;;;;10.60;1.85;;;;;;;;;;5035562;28;20081;-73
2021/09/28 12:00:14;;;;;;;8.30;1.85;;;;;;;;;;5041379;28;20045;-73
2021/09/28 12:02:40;;;;;;;9.68;1.50;;;;;;;;;;5036471;28;20056;-73
2021/09/28 12:10:19;;;;;;;8.68;1.55;;;;;;;;;;5038875;28;20504;-73
2021/09/28 12:12:45;;;;;;;7.50;1.67;;;;;;;;;;5022439;28;20132;-73
2021/09/28 12:15:12;;;;;;;8.18;1.35;;;;;;;;;;5046568;28;20124;-73
2021/09/28 12:17:43;;;;;;;6.30;1.38;;;;;;;;;;5034117;28;20037;-72
2021/09/28 12:20:13;;;;;;;8.23;1.50;;;;;;;;;;5042293;28;20247;-72
2021/09/28 12:23:01;;;;;;;10.02;1.25;;;;;;;;;;5039351;28;20037;-72
2021/09/28 12:25:33;;;;;;;4.22;1.02;;;;;;;;;;5047186;28;20068;-72
2021/09/28 12:28:00;;;;;;;5.22;1.30;;;;;;;;;;5036659;28;20060;-72
2021/09/28 12:30:29;;;;;;;8.50;1.63;;;;;;;;;;5040241;28;20081;-72
2021/09/28 12:32:55;;;;;;;7.32;1.63;;;;;;;;;;5044994;28;20447;-72
2021/09/28 12:35:26;;;;;;;6.43;1.17;;;;;;;;;;5040995;28;20049;-71
2021/09/28 12:37:56;;;;;;;9.48;1.52;;;;;;;;;;5040817;28;20525;-72
2021/09/28 12:40:23;;;;;;;6.30;1.40;;;;;;;;;;5036135;28;20041;-70
2021/09/28 12:42:59;;;;;;;7.55;1.45;;;;;;;;;;5038011;28;20054;-72
2021/09/28 12:45:25;;;;;;;8.27;1.63;;;;;;;;;;5040564;28;20056;-71
2021/09/28 12:47:58;;;;;;;7.43;1.52;;;;;;;;;;5043960;28;20040;-73
2021/09/28 12:50:24;;;;;;;7.13;1.58;;;;;;;;;;5033750;28;20374;-70
2021/09/28 12:52:51;;;;;;;6.35;1.38;;;;;;;;;;5038367;28;20100;-71
2021/09/28 12:55:17;;;;;;;8.35;2.00;;;;;;;;;;5026995;28;20136;-71
2021/09/28 12:57:44;;;;;;;8.10;1.95;;;;;;;;;;5027740;28;20045;-71
2021/09/28 13:00:11;;;;;;;8.80;1.50;;;;;;;;;;5036744;28;20159;-71
2021/09/28 13:02:38;;;;;;;9.13;1.17;;;;;;;;;;5046380;28;20037;-72
2021/09/28 13:05:07;;;;;;;5.90;1.45;;;;;;;;;;5034009;28;20444;-72
2021/09/28 13:07:33;;;;;;;5.60;1.05;;;;;;;;;;5044477;28;20383;-72
2021/09/28 13:09:59;;;;;;;9.45;1.42;;;;;;;;;;5037427;28;20057;-72
2021/09/28 13:12:26;;;;;;;7.88;1.50;;;;;;;;;;5042528;28;20057;-73
2021/09/28 13:14:52;;;;;;;6.97;1.80;;;;;;;;;;5037428;28;20056;-70
2021/09/28 13:17:18;;;;;;;6.00;1.48;;;;;;;;;;5044621;28;20057;-73
2021/09/28 13:19:44;;;;;;;9.77;1.50;;;;;;;;;;5047824;28;20046;-70
2021/09/28 13:22:10;;;;;;;7.47;1.42;;;;;;;;;;5042760;28;20136;-70
2021/09/28 13:24:36;;;;;;;8.15;1.45;;;;;;;;;;5027475;28;20053;-70
2021/09/28 13:27:02;;;;;;;5.75;1.30;;;;;;;;;;5035357;28;20057;-70
2021/09/28 13:29:28;;;;;;;7.38;1.50;;;;;;;;;;5042100;28;20117;-70
2021/09/28 13:31:54;;;;;;;5.85;1.30;;;;;;;;;;5031180;28;20057;-70
2021/09/28 13:34:21;;;;;;;8.23;1.63;;;;;;;;;;5045087;28;20417;-70
2021/09/28 13:36:47;;;;;;;8.40;1.33;;;;;;;;;;5032071;28;20049;-70
2021/09/28 13:39:13;;;;;;;7.88;1.60;;;;;;;;;;5049215;28;20049;-71
2021/09/28 13:41:39;;;;;;;9.43;1.77;;;;;;;;;;5036395;28;20052;-71
2021/09/28 13:44:05;;;;;;;7.82;1.65;;;;;;;;;;5046412;28;20116;-71
2021/09/28 13:46:31;;;;;;;9.70;1.88;;;;;;;;;;5036603;28;20142;-71
2021/09/28 13:48:58;;;;;;;7.03;1.45;;;;;;;;;;5041796;28;20063;-71
2021/09/28 13:51:24;;;;;;;7.80;1.15;;;;;;;;;;5040970;28;20060;-71
2021/09/28 13:53:50;;;;;;;5.72;0.88;;;;;;;;;;5043358;28;20057;-71
2021/09/28 13:56:16;;;;;;;8.38;1.33;;;;;;;;;;5027607;28;20076;-71
2021/09/28 13:58:42;;;;;;;9.73;1.58;;;;;;;;;;5042382;28;20049;-71
2021/09/28 14:01:08;;;;;;;8.65;1.60;;;;;;;;;;5044862;28;20045;-70
2021/09/28 14:03:34;;;;;;;11.18;1.70;;;;;;;;;;5041416;28;20094;-71
2021/09/28 14:06:00;;;;;;;9.85;1.95;;;;;;;;;;5042417;28;20087;-71
2021/09/28 14:08:26;;;;;;;11.57;1.80;;;;;;;;;;5037959;28;20335;-71
2021/09/28 14:10:52;;;;;;;7.32;1.27;;;;;;;;;;5019909;28;20459;-71
2021/09/28 14:13:18;;;;;;;7.07;1.40;;;;;;;;;;5042268;28;20136;-71
2021/09/28 14:15:44;;;;;;;8.40;1.35;;;;;;;;;;5042179;28;20041;-71
2021/09/28 14:18:10;;;;;;;7.30;1.33;;;;;;;;;;5037457;28;20421;-70
2021/09/28 14:20:37;;;;;;;7.25;0.90;;;;;;;;;;5045899;28;20681;-70
2021/09/28 14:23:03;;;;;;;10.88;1.27;;;;;;;;;;5033656;28;20037;-70
2021/09/28 14:25:29;;;;;;;11.45;1.30;;;;;;;;;;5038298;28;20041;-70
2021/09/28 14:27:55;;;;;;;7.45;1.17;;;;;;;;;;5037213;28;20052;-70
2021/09/28 14:30:21;;;;;;;7.30;1.20;;;;;;;;;;5049021;28;20041;-70
2021/09/28 14:32:47;;;;;;;8.93;1.33;;;;;;;;;;5034231;28;20041;-70
2021/09/28 14:35:13;;;;;;;6.38;1.30;;;;;;;;;;5041234;28;20064;-70
2021/09/28 14:37:39;;;;;;;9.02;1.30;;;;;;;;;;5045950;28;20076;-70
2021/09/28 14:40:06;;;;;;;8.27;1.20;;;;;;;;;;5037517;28;20048;-70
2021/09/28 14:42:33;;;;;;;7.57;1.40;;;;;;;;;;5039872;28;20037;-70